sensor_id;sensor_type;location;lat;lon;timestamp;temperature;humidity
21085;DHT22;72320;50.082;20.000;2024-03-07T00:02:21;15.20;57.10
21085;DHT22;72320;50.082;20.000;2024-03-07T00:05:08;15.30;56.60
21085;DHT22;72320;50.082;20.000;2024-03-07T00:07:54;15.50;56.50
21085;DHT22;72320;50.082;20.000;2024-03-07T00:10:40;15.10;56.70
21085;DHT22;72320;50.082;20.000;2024-03-07T00:13:26;14.90;57.10
21085;DHT22;72320;50.082;20.000;2024-03-07T00:16:12;14.90;57.10
21085;DHT22;72320;50.082;20.000;2024-03-07T00:18:58;14.50;58.00
21085;DHT22;72320;50.082;20.000;2024-03-07T00:21:45;14.40;58.90
21085;DHT22;72320;50.082;20.000;2024-03-07T00:24:31;14.40;58.40
21085;DHT22;72320;50.082;20.000;2024-03-07T00:27:16;14.70;57.50
21085;DHT22;72320;50.082;20.000;2024-03-07T00:30:03;14.90;57.70
21085;DHT22;72320;50.082;20.000;2024-03-07T00:32:50;15.20;56.80
21085;DHT22;72320;50.082;20.000;2024-03-07T00:35:36;14.90;56.60
21085;DHT22;72320;50.082;20.000;2024-03-07T00:38:24;15.00;56.70
21085;DHT22;72320;50.082;20.000;2024-03-07T00:41:10;15.10;56.00
21085;DHT22;72320;50.082;20.000;2024-03-07T00:43:56;15.30;56.50
21085;DHT22;72320;50.082;20.000;2024-03-07T00:46:42;15.30;56.20
21085;DHT22;72320;50.082;20.000;2024-03-07T00:49:29;15.30;55.10
21085;DHT22;72320;50.082;20.000;2024-03-07T00:52:15;15.20;55.60
21085;DHT22;72320;50.082;20.000;2024-03-07T00:55:02;15.10;56.10
21085;DHT22;72320;50.082;20.000;2024-03-07T00:57:48;14.60;56.50
21085;DHT22;72320;50.082;20.000;2024-03-07T01:00:34;14.50;57.20
21085;DHT22;72320;50.082;20.000;2024-03-07T01:03:19;14.30;57.60
21085;DHT22;72320;50.082;20.000;2024-03-07T01:06:05;14.50;56.60
21085;DHT22;72320;50.082;20.000;2024-03-07T01:08:53;14.80;56.00
21085;DHT22;72320;50.082;20.000;2024-03-07T01:11:43;13.90;57.40
21085;DHT22;72320;50.082;20.000;2024-03-07T01:14:32;13.50;58.60
21085;DHT22;72320;50.082;20.000;2024-03-07T01:17:18;13.30;59.00
21085;DHT22;72320;50.082;20.000;2024-03-07T01:20:05;13.60;58.70
21085;DHT22;72320;50.082;20.000;2024-03-07T01:22:54;13.20;59.30
21085;DHT22;72320;50.082;20.000;2024-03-07T01:25:40;13.70;58.70
21085;DHT22;72320;50.082;20.000;2024-03-07T01:28:26;13.50;58.60
21085;DHT22;72320;50.082;20.000;2024-03-07T01:31:15;13.40;59.20
21085;DHT22;72320;50.082;20.000;2024-03-07T01:34:01;13.80;58.40
21085;DHT22;72320;50.082;20.000;2024-03-07T01:36:47;13.70;58.20
21085;DHT22;72320;50.082;20.000;2024-03-07T01:39:34;14.00;57.50
21085;DHT22;72320;50.082;20.000;2024-03-07T01:42:22;14.00;57.40
21085;DHT22;72320;50.082;20.000;2024-03-07T01:45:08;14.20;57.10
21085;DHT22;72320;50.082;20.000;2024-03-07T01:47:54;13.90;57.20
21085;DHT22;72320;50.082;20.000;2024-03-07T01:50:41;13.80;57.20
21085;DHT22;72320;50.082;20.000;2024-03-07T01:53:27;13.50;57.80
21085;DHT22;72320;50.082;20.000;2024-03-07T01:56:14;13.40;57.80
21085;DHT22;72320;50.082;20.000;2024-03-07T01:59:01;13.30;58.60
21085;DHT22;72320;50.082;20.000;2024-03-07T02:01:49;13.50;58.00
21085;DHT22;72320;50.082;20.000;2024-03-07T02:04:36;13.60;57.40
21085;DHT22;72320;50.082;20.000;2024-03-07T02:07:23;14.00;56.30
21085;DHT22;72320;50.082;20.000;2024-03-07T02:10:09;14.00;56.40
21085;DHT22;72320;50.082;20.000;2024-03-07T02:12:55;14.30;56.50
21085;DHT22;72320;50.082;20.000;2024-03-07T02:15:41;14.70;55.10
21085;DHT22;72320;50.082;20.000;2024-03-07T02:18:29;14.70;54.30
21085;DHT22;72320;50.082;20.000;2024-03-07T02:21:15;14.10;55.40
21085;DHT22;72320;50.082;20.000;2024-03-07T02:24:02;13.90;56.20
21085;DHT22;72320;50.082;20.000;2024-03-07T02:26:48;14.30;55.50
21085;DHT22;72320;50.082;20.000;2024-03-07T02:29:34;13.70;55.90
21085;DHT22;72320;50.082;20.000;2024-03-07T02:32:20;13.70;56.40
21085;DHT22;72320;50.082;20.000;2024-03-07T02:35:07;13.40;56.30
21085;DHT22;72320;50.082;20.000;2024-03-07T02:37:54;12.90;57.50
21085;DHT22;72320;50.082;20.000;2024-03-07T02:40:40;12.20;58.90
21085;DHT22;72320;50.082;20.000;2024-03-07T02:43:26;12.10;59.90
21085;DHT22;72320;50.082;20.000;2024-03-07T02:46:12;12.30;60.00
21085;DHT22;72320;50.082;20.000;2024-03-07T02:48:58;12.40;60.40
21085;DHT22;72320;50.082;20.000;2024-03-07T02:51:44;12.90;58.50
21085;DHT22;72320;50.082;20.000;2024-03-07T02:54:31;13.50;57.50
21085;DHT22;72320;50.082;20.000;2024-03-07T02:57:17;13.80;56.20
21085;DHT22;72320;50.082;20.000;2024-03-07T03:00:04;13.80;56.00
21085;DHT22;72320;50.082;20.000;2024-03-07T03:02:50;13.50;55.90
21085;DHT22;72320;50.082;20.000;2024-03-07T03:05:36;13.20;56.30
21085;DHT22;72320;50.082;20.000;2024-03-07T03:08:22;13.00;56.70
21085;DHT22;72320;50.082;20.000;2024-03-07T03:11:08;13.40;56.70
21085;DHT22;72320;50.082;20.000;2024-03-07T03:13:54;13.80;55.70
21085;DHT22;72320;50.082;20.000;2024-03-07T03:16:43;14.10;55.00
21085;DHT22;72320;50.082;20.000;2024-03-07T03:19:29;13.80;54.60
21085;DHT22;72320;50.082;20.000;2024-03-07T03:22:15;13.40;55.10
21085;DHT22;72320;50.082;20.000;2024-03-07T03:25:01;13.60;55.10
21085;DHT22;72320;50.082;20.000;2024-03-07T03:27:47;13.40;55.40
21085;DHT22;72320;50.082;20.000;2024-03-07T03:30:38;13.50;55.40
21085;DHT22;72320;50.082;20.000;2024-03-07T03:33:25;13.90;54.60
21085;DHT22;72320;50.082;20.000;2024-03-07T03:36:11;13.90;54.00
21085;DHT22;72320;50.082;20.000;2024-03-07T03:38:57;13.40;54.50
21085;DHT22;72320;50.082;20.000;2024-03-07T03:41:43;12.60;56.10
21085;DHT22;72320;50.082;20.000;2024-03-07T03:44:29;12.80;56.60
21085;DHT22;72320;50.082;20.000;2024-03-07T03:47:15;13.40;55.70
21085;DHT22;72320;50.082;20.000;2024-03-07T03:50:02;13.90;54.10
21085;DHT22;72320;50.082;20.000;2024-03-07T03:52:50;13.20;54.80
21085;DHT22;72320;50.082;20.000;2024-03-07T03:55:36;12.70;55.70
21085;DHT22;72320;50.082;20.000;2024-03-07T03:58:22;12.60;56.30
21085;DHT22;72320;50.082;20.000;2024-03-07T04:01:09;12.70;56.30
21085;DHT22;72320;50.082;20.000;2024-03-07T04:03:56;12.80;55.70
21085;DHT22;72320;50.082;20.000;2024-03-07T04:06:44;13.20;55.10
21085;DHT22;72320;50.082;20.000;2024-03-07T04:09:29;12.80;55.40
21085;DHT22;72320;50.082;20.000;2024-03-07T04:12:15;12.60;55.90
21085;DHT22;72320;50.082;20.000;2024-03-07T04:15:01;12.50;56.00
21085;DHT22;72320;50.082;20.000;2024-03-07T04:17:47;12.50;56.30
21085;DHT22;72320;50.082;20.000;2024-03-07T04:20:34;12.60;55.90
21085;DHT22;72320;50.082;20.000;2024-03-07T04:23:20;12.70;55.80
21085;DHT22;72320;50.082;20.000;2024-03-07T04:26:05;12.90;55.30
21085;DHT22;72320;50.082;20.000;2024-03-07T04:28:52;12.60;55.10
21085;DHT22;72320;50.082;20.000;2024-03-07T04:31:37;12.20;56.00
21085;DHT22;72320;50.082;20.000;2024-03-07T04:34:24;12.20;56.40
21085;DHT22;72320;50.082;20.000;2024-03-07T04:37:10;12.40;56.10
21085;DHT22;72320;50.082;20.000;2024-03-07T04:39:56;12.10;56.70
21085;DHT22;72320;50.082;20.000;2024-03-07T04:42:47;12.30;56.40
21085;DHT22;72320;50.082;20.000;2024-03-07T04:45:37;12.20;56.50
21085;DHT22;72320;50.082;20.000;2024-03-07T04:48:24;12.60;56.00
21085;DHT22;72320;50.082;20.000;2024-03-07T04:51:10;12.30;56.20
21085;DHT22;72320;50.082;20.000;2024-03-07T04:53:56;12.40;56.50
21085;DHT22;72320;50.082;20.000;2024-03-07T04:56:42;12.60;55.90
21085;DHT22;72320;50.082;20.000;2024-03-07T04:59:29;12.60;55.90
21085;DHT22;72320;50.082;20.000;2024-03-07T05:02:16;12.90;55.00
21085;DHT22;72320;50.082;20.000;2024-03-07T05:05:02;12.40;56.00
21085;DHT22;72320;50.082;20.000;2024-03-07T05:07:48;12.40;56.30
21085;DHT22;72320;50.082;20.000;2024-03-07T05:10:34;12.20;56.40
21085;DHT22;72320;50.082;20.000;2024-03-07T05:13:20;12.30;56.50
21085;DHT22;72320;50.082;20.000;2024-03-07T05:16:05;12.90;55.60
21085;DHT22;72320;50.082;20.000;2024-03-07T05:18:54;13.10;54.60
21085;DHT22;72320;50.082;20.000;2024-03-07T05:21:40;12.70;55.00
21085;DHT22;72320;50.082;20.000;2024-03-07T05:24:26;12.60;55.40
21085;DHT22;72320;50.082;20.000;2024-03-07T05:27:12;12.90;55.00
21085;DHT22;72320;50.082;20.000;2024-03-07T05:29:59;13.20;54.60
21085;DHT22;72320;50.082;20.000;2024-03-07T05:32:45;13.10;53.80
21085;DHT22;72320;50.082;20.000;2024-03-07T05:35:31;13.10;53.60
21085;DHT22;72320;50.082;20.000;2024-03-07T05:38:17;12.90;54.50
21085;DHT22;72320;50.082;20.000;2024-03-07T05:41:04;13.00;54.20
21085;DHT22;72320;50.082;20.000;2024-03-07T05:43:50;13.00;54.30
21085;DHT22;72320;50.082;20.000;2024-03-07T05:46:38;13.30;53.80
21085;DHT22;72320;50.082;20.000;2024-03-07T05:49:25;13.10;53.80
21085;DHT22;72320;50.082;20.000;2024-03-07T05:52:11;13.10;54.10
21085;DHT22;72320;50.082;20.000;2024-03-07T05:54:59;13.10;54.00
21085;DHT22;72320;50.082;20.000;2024-03-07T05:57:44;13.20;53.60
21085;DHT22;72320;50.082;20.000;2024-03-07T06:00:31;13.00;54.10
21085;DHT22;72320;50.082;20.000;2024-03-07T06:03:17;13.50;53.40
21085;DHT22;72320;50.082;20.000;2024-03-07T06:06:06;13.50;52.80
21085;DHT22;72320;50.082;20.000;2024-03-07T06:08:57;13.30;53.10
21085;DHT22;72320;50.082;20.000;2024-03-07T06:11:45;13.60;52.40
21085;DHT22;72320;50.082;20.000;2024-03-07T06:14:31;13.50;52.60
21085;DHT22;72320;50.082;20.000;2024-03-07T06:17:17;13.70;51.80
21085;DHT22;72320;50.082;20.000;2024-03-07T06:20:03;13.60;52.00
21085;DHT22;72320;50.082;20.000;2024-03-07T06:22:50;13.10;52.60
21085;DHT22;72320;50.082;20.000;2024-03-07T06:25:39;13.10;53.10
21085;DHT22;72320;50.082;20.000;2024-03-07T06:28:36;13.20;53.50
21085;DHT22;72320;50.082;20.000;2024-03-07T06:31:22;13.10;52.80
21085;DHT22;72320;50.082;20.000;2024-03-07T06:34:10;13.40;52.60
21085;DHT22;72320;50.082;20.000;2024-03-07T06:36:57;13.10;52.70
21085;DHT22;72320;50.082;20.000;2024-03-07T06:39:43;13.50;52.10
21085;DHT22;72320;50.082;20.000;2024-03-07T06:42:29;13.50;51.70
21085;DHT22;72320;50.082;20.000;2024-03-07T06:45:15;13.80;51.40
21085;DHT22;72320;50.082;20.000;2024-03-07T06:48:01;14.00;50.70
21085;DHT22;72320;50.082;20.000;2024-03-07T06:50:46;13.90;50.80
21085;DHT22;72320;50.082;20.000;2024-03-07T06:53:33;13.50;51.10
21085;DHT22;72320;50.082;20.000;2024-03-07T06:56:19;13.50;51.40
21085;DHT22;72320;50.082;20.000;2024-03-07T06:59:05;13.30;51.30
21085;DHT22;72320;50.082;20.000;2024-03-07T07:01:51;13.00;52.30
21085;DHT22;72320;50.082;20.000;2024-03-07T07:04:38;12.90;52.30
21085;DHT22;72320;50.082;20.000;2024-03-07T07:07:27;13.40;51.60
21085;DHT22;72320;50.082;20.000;2024-03-07T07:10:13;13.20;51.70
21085;DHT22;72320;50.082;20.000;2024-03-07T07:13:11;12.80;52.10
21085;DHT22;72320;50.082;20.000;2024-03-07T07:15:58;12.80;51.80
21085;DHT22;72320;50.082;20.000;2024-03-07T07:18:44;12.90;52.20
21085;DHT22;72320;50.082;20.000;2024-03-07T07:21:30;12.90;52.30
21085;DHT22;72320;50.082;20.000;2024-03-07T07:24:16;13.20;51.40
21085;DHT22;72320;50.082;20.000;2024-03-07T07:27:02;13.00;51.60
21085;DHT22;72320;50.082;20.000;2024-03-07T07:29:48;12.90;51.40
21085;DHT22;72320;50.082;20.000;2024-03-07T07:32:34;13.20;51.30
21085;DHT22;72320;50.082;20.000;2024-03-07T07:35:20;13.40;51.10
21085;DHT22;72320;50.082;20.000;2024-03-07T07:38:07;13.70;50.40
21085;DHT22;72320;50.082;20.000;2024-03-07T07:40:52;13.80;50.20
21085;DHT22;72320;50.082;20.000;2024-03-07T07:43:39;14.00;49.00
21085;DHT22;72320;50.082;20.000;2024-03-07T07:46:25;13.30;50.20
21085;DHT22;72320;50.082;20.000;2024-03-07T07:49:13;13.10;50.60
21085;DHT22;72320;50.082;20.000;2024-03-07T07:52:00;12.50;51.60
21085;DHT22;72320;50.082;20.000;2024-03-07T07:54:49;12.70;51.90
21085;DHT22;72320;50.082;20.000;2024-03-07T07:57:37;12.70;51.50
21085;DHT22;72320;50.082;20.000;2024-03-07T08:00:24;12.90;51.50
21085;DHT22;72320;50.082;20.000;2024-03-07T08:03:11;13.00;50.90
21085;DHT22;72320;50.082;20.000;2024-03-07T08:05:57;12.70;51.30
21085;DHT22;72320;50.082;20.000;2024-03-07T08:08:43;13.10;50.80
21085;DHT22;72320;50.082;20.000;2024-03-07T08:11:29;13.30;50.30
21085;DHT22;72320;50.082;20.000;2024-03-07T08:14:14;12.50;51.10
21085;DHT22;72320;50.082;20.000;2024-03-07T08:17:00;12.70;51.40
21085;DHT22;72320;50.082;20.000;2024-03-07T08:19:48;13.30;50.70
21085;DHT22;72320;50.082;20.000;2024-03-07T08:22:35;13.70;49.80
21085;DHT22;72320;50.082;20.000;2024-03-07T08:25:24;14.20;49.20
21085;DHT22;72320;50.082;20.000;2024-03-07T08:28:12;14.30;48.30
21085;DHT22;72320;50.082;20.000;2024-03-07T08:30:58;14.00;48.70
21085;DHT22;72320;50.082;20.000;2024-03-07T08:33:44;14.40;48.10
21085;DHT22;72320;50.082;20.000;2024-03-07T08:36:32;14.60;47.40
21085;DHT22;72320;50.082;20.000;2024-03-07T08:39:18;14.30;47.80
21085;DHT22;72320;50.082;20.000;2024-03-07T08:42:04;14.20;48.00
21085;DHT22;72320;50.082;20.000;2024-03-07T08:44:50;14.10;48.00
21085;DHT22;72320;50.082;20.000;2024-03-07T08:47:37;13.90;48.50
21085;DHT22;72320;50.082;20.000;2024-03-07T08:50:23;13.80;48.80
21085;DHT22;72320;50.082;20.000;2024-03-07T08:53:10;13.40;50.10
21085;DHT22;72320;50.082;20.000;2024-03-07T08:56:00;13.00;50.10
21085;DHT22;72320;50.082;20.000;2024-03-07T08:58:46;13.10;50.40
21085;DHT22;72320;50.082;20.000;2024-03-07T09:01:35;13.10;50.20
21085;DHT22;72320;50.082;20.000;2024-03-07T09:04:21;12.70;50.50
21085;DHT22;72320;50.082;20.000;2024-03-07T09:07:08;12.70;51.20
21085;DHT22;72320;50.082;20.000;2024-03-07T09:09:53;12.70;50.90
21085;DHT22;72320;50.082;20.000;2024-03-07T09:12:40;13.10;51.40
21085;DHT22;72320;50.082;20.000;2024-03-07T09:15:26;13.20;50.10
21085;DHT22;72320;50.082;20.000;2024-03-07T09:18:13;13.90;49.20
21085;DHT22;72320;50.082;20.000;2024-03-07T09:20:58;13.90;48.50
21085;DHT22;72320;50.082;20.000;2024-03-07T09:23:46;13.20;49.50
21085;DHT22;72320;50.082;20.000;2024-03-07T09:26:32;13.40;49.60
21085;DHT22;72320;50.082;20.000;2024-03-07T09:29:19;14.10;48.80
21085;DHT22;72320;50.082;20.000;2024-03-07T09:32:05;14.40;47.80
21085;DHT22;72320;50.082;20.000;2024-03-07T09:34:51;14.30;47.80
21085;DHT22;72320;50.082;20.000;2024-03-07T09:37:42;14.40;47.40
21085;DHT22;72320;50.082;20.000;2024-03-07T09:40:28;13.80;48.30
21085;DHT22;72320;50.082;20.000;2024-03-07T09:43:15;14.10;48.40
21085;DHT22;72320;50.082;20.000;2024-03-07T09:46:03;14.10;48.10
21085;DHT22;72320;50.082;20.000;2024-03-07T09:48:51;13.70;48.40
21085;DHT22;72320;50.082;20.000;2024-03-07T09:51:38;14.00;48.40
21085;DHT22;72320;50.082;20.000;2024-03-07T09:54:25;14.30;47.80
21085;DHT22;72320;50.082;20.000;2024-03-07T09:57:11;14.30;47.60
21085;DHT22;72320;50.082;20.000;2024-03-07T09:59:58;14.50;47.30
21085;DHT22;72320;50.082;20.000;2024-03-07T10:02:45;14.50;47.90
21085;DHT22;72320;50.082;20.000;2024-03-07T10:05:33;14.60;47.00
21085;DHT22;72320;50.082;20.000;2024-03-07T10:08:19;14.70;46.60
21085;DHT22;72320;50.082;20.000;2024-03-07T10:11:08;14.20;47.40
21085;DHT22;72320;50.082;20.000;2024-03-07T10:13:54;13.40;48.60
21085;DHT22;72320;50.082;20.000;2024-03-07T10:16:40;12.80;50.00
21085;DHT22;72320;50.082;20.000;2024-03-07T10:19:27;12.70;50.40
21085;DHT22;72320;50.082;20.000;2024-03-07T10:22:14;13.40;49.80
21085;DHT22;72320;50.082;20.000;2024-03-07T10:25:00;13.70;48.80
21085;DHT22;72320;50.082;20.000;2024-03-07T10:27:49;13.80;48.10
21085;DHT22;72320;50.082;20.000;2024-03-07T10:30:42;13.50;48.40
21085;DHT22;72320;50.082;20.000;2024-03-07T10:33:30;13.20;49.50
21085;DHT22;72320;50.082;20.000;2024-03-07T10:36:18;13.70;48.60
21085;DHT22;72320;50.082;20.000;2024-03-07T10:39:04;13.80;48.40
21085;DHT22;72320;50.082;20.000;2024-03-07T10:41:50;13.80;48.40
21085;DHT22;72320;50.082;20.000;2024-03-07T10:44:39;13.70;48.30
21085;DHT22;72320;50.082;20.000;2024-03-07T10:47:30;13.20;49.20
21085;DHT22;72320;50.082;20.000;2024-03-07T11:00:22;13.40;49.80
21085;DHT22;72320;50.082;20.000;2024-03-07T11:03:15;14.20;48.40
21085;DHT22;72320;50.082;20.000;2024-03-07T11:06:02;14.40;47.60
21085;DHT22;72320;50.082;20.000;2024-03-07T11:08:51;14.30;47.50
21085;DHT22;72320;50.082;20.000;2024-03-07T11:11:39;14.40;47.30
21085;DHT22;72320;50.082;20.000;2024-03-07T11:14:25;14.70;46.90
21085;DHT22;72320;50.082;20.000;2024-03-07T11:17:13;15.10;46.30
21085;DHT22;72320;50.082;20.000;2024-03-07T11:23:27;15.40;45.70
21085;DHT22;72320;50.082;20.000;2024-03-07T11:26:20;15.70;45.00
21085;DHT22;72320;50.082;20.000;2024-03-07T11:29:34;15.50;45.20
21085;DHT22;72320;50.082;20.000;2024-03-07T11:32:28;15.50;45.10
21085;DHT22;72320;50.082;20.000;2024-03-07T11:35:15;15.10;45.20
21085;DHT22;72320;50.082;20.000;2024-03-07T11:38:00;14.40;46.70
21085;DHT22;72320;50.082;20.000;2024-03-07T11:40:46;14.50;46.90
21085;DHT22;72320;50.082;20.000;2024-03-07T11:43:35;14.50;46.90
21085;DHT22;72320;50.082;20.000;2024-03-07T11:46:21;14.90;46.30
21085;DHT22;72320;50.082;20.000;2024-03-07T11:49:08;15.20;45.70
21085;DHT22;72320;50.082;20.000;2024-03-07T11:51:55;15.30;45.10
21085;DHT22;72320;50.082;20.000;2024-03-07T11:54:42;14.80;45.70
21085;DHT22;72320;50.082;20.000;2024-03-07T11:57:32;15.10;45.50
21085;DHT22;72320;50.082;20.000;2024-03-07T12:00:19;15.40;45.00
21085;DHT22;72320;50.082;20.000;2024-03-07T12:03:07;15.20;44.80
21085;DHT22;72320;50.082;20.000;2024-03-07T12:05:54;15.20;44.80
21085;DHT22;72320;50.082;20.000;2024-03-07T12:08:40;14.90;45.10
21085;DHT22;72320;50.082;20.000;2024-03-07T13:35:47;16.20;43.20
21085;DHT22;72320;50.082;20.000;2024-03-07T13:38:13;15.90;43.30
21085;DHT22;72320;50.082;20.000;2024-03-07T13:40:59;15.70;43.70
21085;DHT22;72320;50.082;20.000;2024-03-07T13:43:46;15.80;43.30
21085;DHT22;72320;50.082;20.000;2024-03-07T13:46:34;15.30;43.90
21085;DHT22;72320;50.082;20.000;2024-03-07T13:49:20;14.80;44.70
21085;DHT22;72320;50.082;20.000;2024-03-07T13:52:05;14.90;44.90
21085;DHT22;72320;50.082;20.000;2024-03-07T13:54:51;14.90;45.00
21085;DHT22;72320;50.082;20.000;2024-03-07T13:57:42;15.30;44.20
21085;DHT22;72320;50.082;20.000;2024-03-07T14:00:42;16.00;43.80
21085;DHT22;72320;50.082;20.000;2024-03-07T14:07:08;17.30;40.90
21085;DHT22;72320;50.082;20.000;2024-03-07T14:22:03;16.60;41.10
21085;DHT22;72320;50.082;20.000;2024-03-07T14:28:42;16.20;41.50
21085;DHT22;72320;50.082;20.000;2024-03-07T14:31:47;16.10;41.90
21085;DHT22;72320;50.082;20.000;2024-03-07T14:40:51;15.40;42.30
21085;DHT22;72320;50.082;20.000;2024-03-07T14:43:38;15.50;42.70
21085;DHT22;72320;50.082;20.000;2024-03-07T14:46:24;15.80;42.40
21085;DHT22;72320;50.082;20.000;2024-03-07T14:49:12;15.20;43.00
21085;DHT22;72320;50.082;20.000;2024-03-07T14:52:02;15.30;43.20
21085;DHT22;72320;50.082;20.000;2024-03-07T14:54:50;15.00;44.00
21085;DHT22;72320;50.082;20.000;2024-03-07T14:57:37;15.30;43.00
21085;DHT22;72320;50.082;20.000;2024-03-07T15:00:23;14.80;43.60
21085;DHT22;72320;50.082;20.000;2024-03-07T15:03:13;14.70;43.80
21085;DHT22;72320;50.082;20.000;2024-03-07T15:06:01;15.30;43.20
21085;DHT22;72320;50.082;20.000;2024-03-07T15:08:48;15.70;42.40
21085;DHT22;72320;50.082;20.000;2024-03-07T15:11:37;16.10;41.50
21085;DHT22;72320;50.082;20.000;2024-03-07T15:14:24;16.30;41.00
21085;DHT22;72320;50.082;20.000;2024-03-07T15:17:09;16.30;41.00
21085;DHT22;72320;50.082;20.000;2024-03-07T15:19:56;16.10;41.10
21085;DHT22;72320;50.082;20.000;2024-03-07T15:22:42;15.50;41.90
21085;DHT22;72320;50.082;20.000;2024-03-07T15:25:31;14.90;43.00
21085;DHT22;72320;50.082;20.000;2024-03-07T15:28:17;14.60;43.70
21085;DHT22;72320;50.082;20.000;2024-03-07T15:31:03;14.30;44.50
21085;DHT22;72320;50.082;20.000;2024-03-07T15:33:51;14.50;44.20
21085;DHT22;72320;50.082;20.000;2024-03-07T15:36:37;14.40;44.60
21085;DHT22;72320;50.082;20.000;2024-03-07T15:39:23;14.80;43.70
21085;DHT22;72320;50.082;20.000;2024-03-07T15:42:12;14.90;43.20
21085;DHT22;72320;50.082;20.000;2024-03-07T15:44:59;15.40;42.70
21085;DHT22;72320;50.082;20.000;2024-03-07T15:48:00;15.70;41.80
21085;DHT22;72320;50.082;20.000;2024-03-07T15:50:46;15.20;42.20
21085;DHT22;72320;50.082;20.000;2024-03-07T15:53:32;14.20;44.00
21085;DHT22;72320;50.082;20.000;2024-03-07T15:56:17;14.60;44.20
21085;DHT22;72320;50.082;20.000;2024-03-07T15:59:03;15.20;42.90
21085;DHT22;72320;50.082;20.000;2024-03-07T16:01:49;15.30;42.60
21085;DHT22;72320;50.082;20.000;2024-03-07T16:04:35;15.00;43.00
21085;DHT22;72320;50.082;20.000;2024-03-07T16:07:21;14.60;44.00
21085;DHT22;72320;50.082;20.000;2024-03-07T16:10:07;15.10;43.20
21085;DHT22;72320;50.082;20.000;2024-03-07T16:12:55;14.60;44.20
21085;DHT22;72320;50.082;20.000;2024-03-07T16:15:43;14.90;43.40
21085;DHT22;72320;50.082;20.000;2024-03-07T16:18:31;14.70;43.50
21085;DHT22;72320;50.082;20.000;2024-03-07T16:21:17;14.60;43.40
21085;DHT22;72320;50.082;20.000;2024-03-07T16:24:02;15.10;42.80
21085;DHT22;72320;50.082;20.000;2024-03-07T16:26:49;15.80;41.70
21085;DHT22;72320;50.082;20.000;2024-03-07T16:29:34;15.70;41.40
21085;DHT22;72320;50.082;20.000;2024-03-07T16:32:20;15.90;40.90
21085;DHT22;72320;50.082;20.000;2024-03-07T16:35:06;15.30;41.50
21085;DHT22;72320;50.082;20.000;2024-03-07T16:37:56;15.00;42.30
21085;DHT22;72320;50.082;20.000;2024-03-07T16:40:43;15.30;41.50
21085;DHT22;72320;50.082;20.000;2024-03-07T16:43:29;15.20;41.50
21085;DHT22;72320;50.082;20.000;2024-03-07T16:46:14;15.20;41.70
21085;DHT22;72320;50.082;20.000;2024-03-07T16:49:00;15.60;41.50
21085;DHT22;72320;50.082;20.000;2024-03-07T16:51:46;15.50;41.30
21085;DHT22;72320;50.082;20.000;2024-03-07T16:54:33;15.00;41.70
21085;DHT22;72320;50.082;20.000;2024-03-07T16:57:19;14.50;43.00
21085;DHT22;72320;50.082;20.000;2024-03-07T17:00:08;14.50;43.30
21085;DHT22;72320;50.082;20.000;2024-03-07T17:05:46;15.50;42.30
21085;DHT22;72320;50.082;20.000;2024-03-07T17:08:32;16.20;40.50
21085;DHT22;72320;50.082;20.000;2024-03-07T17:11:17;16.40;40.10
21085;DHT22;72320;50.082;20.000;2024-03-07T17:14:03;16.30;39.70
21085;DHT22;72320;50.082;20.000;2024-03-07T17:16:53;15.70;40.90
21085;DHT22;72320;50.082;20.000;2024-03-07T17:19:39;15.50;41.90
21085;DHT22;72320;50.082;20.000;2024-03-07T17:22:25;15.80;41.60
21085;DHT22;72320;50.082;20.000;2024-03-07T17:25:11;15.10;43.10
21085;DHT22;72320;50.082;20.000;2024-03-07T17:27:57;15.30;43.00
21085;DHT22;72320;50.082;20.000;2024-03-07T17:30:43;15.30;42.90
21085;DHT22;72320;50.082;20.000;2024-03-07T17:33:29;15.30;42.80
21085;DHT22;72320;50.082;20.000;2024-03-07T17:36:15;15.00;43.20
21085;DHT22;72320;50.082;20.000;2024-03-07T17:39:00;15.00;43.50
21085;DHT22;72320;50.082;20.000;2024-03-07T17:41:48;14.80;43.50
21085;DHT22;72320;50.082;20.000;2024-03-07T17:44:36;14.40;44.50
21085;DHT22;72320;50.082;20.000;2024-03-07T17:47:25;14.20;44.70
21085;DHT22;72320;50.082;20.000;2024-03-07T17:50:11;14.20;44.80
21085;DHT22;72320;50.082;20.000;2024-03-07T17:52:57;14.10;45.10
21085;DHT22;72320;50.082;20.000;2024-03-07T17:55:46;14.70;44.30
21085;DHT22;72320;50.082;20.000;2024-03-07T17:58:32;15.10;43.50
21085;DHT22;72320;50.082;20.000;2024-03-07T18:01:18;15.40;43.50
21085;DHT22;72320;50.082;20.000;2024-03-07T18:04:03;15.50;42.50
21085;DHT22;72320;50.082;20.000;2024-03-07T18:06:49;15.00;42.90
21085;DHT22;72320;50.082;20.000;2024-03-07T18:09:36;14.80;44.30
21085;DHT22;72320;50.082;20.000;2024-03-07T18:12:22;14.90;43.40
21085;DHT22;72320;50.082;20.000;2024-03-07T18:15:08;14.90;43.40
21085;DHT22;72320;50.082;20.000;2024-03-07T18:17:54;15.10;43.20
21085;DHT22;72320;50.082;20.000;2024-03-07T18:20:44;14.70;43.30
21085;DHT22;72320;50.082;20.000;2024-03-07T18:23:30;14.30;44.00
21085;DHT22;72320;50.082;20.000;2024-03-07T18:26:16;14.30;44.00
21085;DHT22;72320;50.082;20.000;2024-03-07T18:29:03;13.90;44.90
21085;DHT22;72320;50.082;20.000;2024-03-07T18:31:49;13.80;45.20
21085;DHT22;72320;50.082;20.000;2024-03-07T18:34:38;13.60;45.60
21085;DHT22;72320;50.082;20.000;2024-03-07T18:37:23;13.50;45.90
21085;DHT22;72320;50.082;20.000;2024-03-07T18:40:13;13.70;45.50
21085;DHT22;72320;50.082;20.000;2024-03-07T18:43:03;13.50;45.70
21085;DHT22;72320;50.082;20.000;2024-03-07T18:45:52;13.50;45.90
21085;DHT22;72320;50.082;20.000;2024-03-07T18:48:38;13.20;46.20
21085;DHT22;72320;50.082;20.000;2024-03-07T18:51:24;12.90;47.10
21085;DHT22;72320;50.082;20.000;2024-03-07T18:54:09;13.70;46.00
21085;DHT22;72320;50.082;20.000;2024-03-07T18:56:58;13.90;45.10
21085;DHT22;72320;50.082;20.000;2024-03-07T18:59:43;14.10;44.80
21085;DHT22;72320;50.082;20.000;2024-03-07T19:02:29;14.20;44.50
21085;DHT22;72320;50.082;20.000;2024-03-07T19:05:15;14.30;44.00
21085;DHT22;72320;50.082;20.000;2024-03-07T19:08:02;14.30;44.00
21085;DHT22;72320;50.082;20.000;2024-03-07T19:10:51;14.00;44.40
21085;DHT22;72320;50.082;20.000;2024-03-07T19:13:38;14.00;44.60
21085;DHT22;72320;50.082;20.000;2024-03-07T19:16:24;14.00;44.30
21085;DHT22;72320;50.082;20.000;2024-03-07T19:19:10;13.30;45.50
21085;DHT22;72320;50.082;20.000;2024-03-07T19:21:56;13.10;46.30
21085;DHT22;72320;50.082;20.000;2024-03-07T19:24:42;12.90;46.50